Time;durP1;ratioP1;P1;durP2;ratioP2;P2;SDS_P1;SDS_P2;PMS_P1;PMS_P2;Temp;Humidity;BMP_temperature;BMP_pressure;BME280_temperature;BME280_humidity;BME280_pressure;Samples;Min_cycle;Max_cycle;Signal;HPM_P1;HPM_P2
2024/02/10 00:00:09;;;;;;;;;;;;;;;6.15;100.00;96867.16;4974467;28;19918;-86
2024/02/10 00:02:36;;;;;;;;;;;;;;;6.18;100.00;96871.38;4975530;28;19981;-88
2024/02/10 00:05:01;;;;;;;;;;;;;;;6.14;100.00;96867.28;4975457;28;19968;-87
2024/02/10 00:07:27;;;;;;;;;;;;;;;6.17;100.00;96875.81;4974938;28;19957;-83
2024/02/10 00:09:55;;;;;;;;;;;;;;;6.14;100.00;96873.38;4975342;28;19940;-87
2024/02/10 00:12:21;;;;;;;;;;;;;;;6.18;100.00;96866.13;4973595;28;20016;-82
2024/02/10 00:14:46;;;;;;;;;;;;;;;6.15;100.00;96861.06;4973702;28;20041;-83
2024/02/10 00:17:11;;;;;;;;;;;;;;;6.17;100.00;96860.03;4974617;28;20369;-80
2024/02/10 00:19:37;;;;;;;;;;;;;;;6.17;100.00;96857.41;4973147;28;20425;-85
2024/02/10 00:22:06;;;;;;;;;;;;;;;6.16;100.00;96855.72;4975071;28;20382;-84
2024/02/10 00:24:31;;;;;;;;;;;;;;;6.16;100.00;96852.25;4974614;28;20346;-86
2024/02/10 00:27:01;;;;;;;;;;;;;;;6.12;100.00;96863.91;4972271;28;20008;-82
2024/02/10 00:29:27;;;;;;;;;;;;;;;6.12;100.00;96866.56;4973956;28;19922;-85
2024/02/10 00:31:52;;;;;;;;;;;;;;;6.12;100.00;96861.28;4974257;28;19993;-88
2024/02/10 00:34:17;;;;;;;;;;;;;;;6.14;100.00;96855.00;4974939;28;19941;-87
2024/02/10 00:36:44;;;;;;;;;;;;;;;6.11;100.00;96856.97;4974329;28;20333;-85
2024/02/10 00:39:10;;;;;;;;;;;;;;;6.12;100.00;96848.16;4973259;28;19922;-88
2024/02/10 00:41:36;;;;;;;;;;;;;;;6.07;100.00;96852.91;4974258;28;19925;-82
2024/02/10 00:44:01;;;;;;;;;;;;;;;6.09;100.00;96848.38;4972094;28;19969;-84
2024/02/10 00:46:26;;;;;;;;;;;;;;;6.08;100.00;96841.41;4971061;28;20497;-82
2024/02/10 00:48:53;;;;;;;;;;;;;;;6.06;100.00;96844.16;4973784;28;20084;-82
2024/02/10 00:51:18;;;;;;;;;;;;;;;6.09;100.00;96845.75;4974239;28;20342;-83
2024/02/10 00:53:44;;;;;;;;;;;;;;;6.10;100.00;96840.38;4972612;28;19984;-83
2024/02/10 00:56:10;;;;;;;;;;;;;;;6.11;100.00;96841.19;4972647;28;19934;-85
2024/02/10 00:58:40;;;;;;;;;;;;;;;6.10;100.00;96848.25;4971994;28;20370;-84
2024/02/10 01:01:09;;;;;;;;;;;;;;;6.07;100.00;96839.75;4972439;28;20336;-86
2024/02/10 01:03:35;;;;;;;;;;;;;;;6.07;100.00;96839.75;4973747;28;20321;-89
2024/02/10 06:32:36;;;;;;;;;;;;;;;5.77;100.00;96736.66;4954195;28;19933;-81
2024/02/10 06:35:01;;;;;;;;;;;;;;;5.78;100.00;96729.66;4973044;28;19930;-81
2024/02/10 06:37:27;;;;;;;;;;;;;;;5.82;100.00;96728.47;4973158;28;20329;-83
2024/02/10 06:39:52;;;;;;;;;;;;;;;5.80;100.00;96727.75;4973142;28;19922;-81
2024/02/10 06:42:17;;;;;;;;;;;;;;;5.80;100.00;96725.13;4973112;28;19918;-82
2024/02/10 06:44:43;;;;;;;;;;;;;;;5.81;100.00;96726.81;4970991;28;19925;-82
2024/02/10 06:47:08;;;;;;;;;;;;;;;5.83;100.00;96730.16;4945551;28;19926;-82
2024/02/10 06:49:34;;;;;;;;;;;;;;;5.79;100.00;96728.69;4963722;28;19942;-82
2024/02/10 06:52:03;;;;;;;;;;;;;;;5.79;100.00;96734.78;4963188;28;19922;-82
2024/02/10 06:54:28;;;;;;;;;;;;;;;5.84;100.00;96742.34;4946296;28;20013;-80
2024/02/10 06:56:55;;;;;;;;;;;;;;;5.84;100.00;96742.34;4972843;28;20060;-82
2024/02/10 06:59:23;;;;;;;;;;;;;;;5.82;100.00;96738.97;4971462;28;20388;-81
2024/02/10 07:01:52;;;;;;;;;;;;;;;5.75;100.00;96730.69;4945867;28;20267;-80
2024/02/10 07:04:17;;;;;;;;;;;;;;;5.75;100.00;96735.94;4963528;28;19926;-80
2024/02/10 07:06:42;;;;;;;;;;;;;;;5.80;100.00;96735.63;4963523;28;19997;-91
2024/02/10 07:09:08;;;;;;;;;;;;;;;5.83;100.00;96735.41;4955428;28;19918;-80
2024/02/10 07:11:33;;;;;;;;;;;;;;;5.79;100.00;96733.94;4972852;28;20369;-82
2024/02/10 07:13:58;;;;;;;;;;;;;;;5.78;100.00;96741.00;4971869;28;19922;-80
2024/02/10 07:16:23;;;;;;;;;;;;;;;5.75;100.00;96743.00;4945516;28;20456;-80
2024/02/10 07:18:50;;;;;;;;;;;;;;;5.75;100.00;96741.19;4965518;28;19965;-80
2024/02/10 07:21:15;;;;;;;;;;;;;;;5.74;100.00;96754.44;4966444;28;20001;-81
2024/02/10 07:23:41;;;;;;;;;;;;;;;5.73;100.00;96766.75;4949882;28;20021;-82
2024/02/10 07:26:07;;;;;;;;;;;;;;;5.77;100.00;96762.13;4976075;28;19918;-82
2024/02/10 07:28:32;;;;;;;;;;;;;;;5.77;100.00;96751.59;4976116;28;20404;-81
2024/02/10 07:30:57;;;;;;;;;;;;;;;5.74;100.00;96763.16;4957661;28;20357;-82
2024/02/10 07:33:24;;;;;;;;;;;;;;;5.73;100.00;96751.00;4975938;28;19930;-80
2024/02/10 07:35:50;;;;;;;;;;;;;;;5.72;100.00;96754.56;4975852;28;19925;-81
2024/02/10 07:38:21;;;;;;;;;;;;;;;5.75;100.00;96750.88;4958564;28;20329;-81
2024/02/10 07:40:46;;;;;;;;;;;;;;;5.75;100.00;96745.63;4975704;28;19976;-80
2024/02/10 07:43:15;;;;;;;;;;;;;;;5.73;100.00;96742.28;4976051;28;19925;-79
2024/02/10 07:45:44;;;;;;;;;;;;;;;5.72;100.00;96736.16;4974639;28;19950;-81
2024/02/10 07:48:09;;;;;;;;;;;;;;;5.75;100.00;96743.00;4976341;28;20423;-81
2024/02/10 07:50:40;;;;;;;;;;;;;;;5.73;100.00;96745.75;4975874;28;19926;-85
2024/02/10 07:53:10;;;;;;;;;;;;;;;5.75;100.00;96743.00;4958553;28;20481;-81
2024/02/10 07:55:36;;;;;;;;;;;;;;;5.73;100.00;96747.53;4975026;28;19922;-81
2024/02/10 07:58:04;;;;;;;;;;;;;;;5.73;100.00;96758.03;4975858;28;20310;-86
2024/02/10 08:42:54;;;;;;;;;;;;;;;5.77;100.00;96754.22;4984778;28;19929;-81
2024/02/10 08:45:19;;;;;;;;;;;;;;;5.74;100.00;96747.41;4967296;28;19926;-80
2024/02/10 08:47:45;;;;;;;;;;;;;;;5.72;100.00;96743.22;4984242;28;20404;-80
2024/02/10 08:50:12;;;;;;;;;;;;;;;5.71;100.00;96741.53;4975166;28;19924;-79
2024/02/10 08:52:38;;;;;;;;;;;;;;;5.71;100.00;96744.16;4983875;28;19949;-81
2024/02/10 08:55:05;;;;;;;;;;;;;;;5.71;100.00;96737.13;4983112;28;19922;-79
2024/02/10 08:57:31;;;;;;;;;;;;;;;5.71;100.00;96741.53;4984128;28;19922;-79
2024/02/10 08:59:56;;;;;;;;;;;;;;;5.69;100.00;96746.91;4984551;28;19941;-79
2024/02/10 09:02:22;;;;;;;;;;;;;;;5.69;100.00;96752.16;4984627;28;19950;-85
2024/02/10 09:04:49;;;;;;;;;;;;;;;5.72;100.00;96749.31;4983943;28;20328;-87
2024/02/10 09:07:18;;;;;;;;;;;;;;;5.67;100.00;96755.84;4983947;28;19918;-83
2024/02/10 09:09:45;;;;;;;;;;;;;;;5.69;100.00;96752.16;4982670;28;19968;-84
2024/02/10 09:12:12;;;;;;;;;;;;;;;5.67;100.00;96756.69;4983878;28;20403;-84
2024/02/10 09:14:37;;;;;;;;;;;;;;;5.72;100.00;96751.94;4984022;28;19966;-85
2024/02/10 09:17:03;;;;;;;;;;;;;;;5.72;100.00;96746.69;4984536;28;20372;-89
2024/02/10 09:19:28;;;;;;;;;;;;;;;5.72;100.00;96756.34;4983702;28;19925;-83
2024/02/10 09:21:57;;;;;;;;;;;;;;;5.71;100.00;96754.66;4983716;28;19922;-83
2024/02/10 09:24:23;;;;;;;;;;;;;;;5.75;100.00;96759.59;4982294;28;19922;-85
2024/02/10 09:26:51;;;;;;;;;;;;;;;5.75;100.00;96758.75;4984119;28;19918;-85
2024/02/10 09:29:18;;;;;;;;;;;;;;;5.77;100.00;96754.22;4983710;28;19925;-83
2024/02/10 09:31:46;;;;;;;;;;;;;;;5.73;100.00;96758.03;4983498;28;20308;-85
2024/02/10 09:34:12;;;;;;;;;;;;;;;5.73;100.00;96760.66;4983692;28;19937;-85
2024/02/10 09:36:42;;;;;;;;;;;;;;;5.73;100.00;96763.31;4983355;28;19917;-88
2024/02/10 09:39:08;;;;;;;;;;;;;;;5.73;100.00;96765.94;4982036;28;20012;-80
2024/02/10 09:41:33;;;;;;;;;;;;;;;5.73;100.00;96765.94;4983101;28;20072;-93
2024/02/10 09:43:59;;;;;;;;;;;;;;;5.69;100.00;96761.81;4983395;28;20008;-87
2024/02/10 09:46:24;;;;;;;;;;;;;;;5.74;100.00;96757.06;4983229;28;19918;-84
2024/02/10 09:48:51;;;;;;;;;;;;;;;5.71;100.00;96762.53;4983536;28;19918;-79
2024/02/10 09:51:17;;;;;;;;;;;;;;;5.76;100.00;96748.16;4966023;28;19929;-78
2024/02/10 09:53:42;;;;;;;;;;;;;;;5.73;100.00;96755.41;4973751;28;19918;-79
2024/02/10 09:56:10;;;;;;;;;;;;;;;5.77;100.00;96748.97;4981910;28;19918;-78
2024/02/10 09:58:39;;;;;;;;;;;;;;;5.82;100.00;96757.38;4983073;28;19919;-81
2024/02/10 10:01:06;;;;;;;;;;;;;;;5.71;100.00;96747.66;4983043;28;19922;-81
2024/02/10 10:03:31;;;;;;;;;;;;;;;5.71;100.00;96754.66;4983516;28;19925;-78
2024/02/10 10:05:59;;;;;;;;;;;;;;;5.72;100.00;96753.72;4983350;28;20278;-78
2024/02/10 10:08:24;;;;;;;;;;;;;;;5.69;100.00;96759.19;4982802;28;19928;-79
2024/02/10 10:10:50;;;;;;;;;;;;;;;5.76;100.00;96756.03;4982090;28;20280;-81
2024/02/10 10:13:46;;;;;;;;;;;;;;;5.73;100.00;96744.91;4982730;28;20008;-84
2024/02/10 10:16:11;;;;;;;;;;;;;;;5.79;100.00;96750.56;4963910;28;19972;-79
2024/02/10 10:18:37;;;;;;;;;;;;;;;5.72;100.00;96743.22;4982639;28;20432;-82
2024/02/10 10:21:06;;;;;;;;;;;;;;;5.78;100.00;96748.03;4983401;28;20004;-81
2024/02/10 10:23:34;;;;;;;;;;;;;;;5.80;100.00;96746.13;4982661;28;19925;-83
2024/02/10 10:26:00;;;;;;;;;;;;;;;5.73;100.00;96737.03;4981574;28;20377;-82
2024/02/10 10:28:25;;;;;;;;;;;;;;;5.79;100.00;96737.41;4982583;28;19922;-79
2024/02/10 10:30:50;;;;;;;;;;;;;;;5.80;100.00;96741.72;4982795;28;19926;-80
2024/02/10 10:33:20;;;;;;;;;;;;;;;5.74;100.00;96741.31;4983426;28;19949;-81
2024/02/10 10:35:47;;;;;;;;;;;;;;;5.72;100.00;96730.09;4982474;28;20394;-86
2024/02/10 10:38:12;;;;;;;;;;;;;;;5.75;100.00;96733.31;4982965;28;19925;-85
2024/02/10 10:40:38;;;;;;;;;;;;;;;5.71;100.00;96737.13;4981448;28;19921;-91
2024/02/10 10:43:05;;;;;;;;;;;;;;;5.76;100.00;96736.78;4982638;28;19919;-81
2024/02/10 10:45:32;;;;;;;;;;;;;;;5.72;100.00;96722.19;4982631;28;19926;-82
2024/02/10 10:47:59;;;;;;;;;;;;;;;5.82;100.00;96717.94;4982779;28;19929;-83
2024/02/10 10:50:24;;;;;;;;;;;;;;;5.81;100.00;96711.03;4982621;28;20388;-83
2024/02/10 10:53:52;;;;;;;;;;;;;;;5.79;100.00;96720.78;4985177;28;19919;-79
2024/02/10 10:56:00;;;;;;;;;;;;;;;5.74;100.00;96726.38;4978116;28;19941;-82
2024/02/10 10:58:38;;;;;;;;;;;;;;;5.77;100.00;96735.84;4986457;28;19941;-82
2024/02/10 11:01:04;;;;;;;;;;;;;;;5.77;100.00;96720.06;4986593;28;19921;-84
2024/02/10 11:03:30;;;;;;;;;;;;;;;5.77;100.00;96720.06;4986222;28;19918;-85
2024/02/10 11:05:55;;;;;;;;;;;;;;;5.80;100.00;96706.72;4986430;28;19933;-83
2024/02/10 11:08:22;;;;;;;;;;;;;;;5.78;100.00;96706.00;4986537;28;19918;-82
2024/02/10 11:10:48;;;;;;;;;;;;;;;5.78;100.00;96704.19;4984696;28;19965;-80
2024/02/10 11:13:21;;;;;;;;;;;;;;;5.78;100.00;96703.38;4986192;28;19925;-84
2024/02/10 11:15:47;;;;;;;;;;;;;;;5.83;100.00;96698.63;4986424;28;19917;-81
2024/02/10 11:18:18;;;;;;;;;;;;;;;5.83;100.00;96704.69;5001339;28;20342;-81
2024/02/10 11:20:44;;;;;;;;;;;;;;;5.75;100.00;96712.31;4985741;28;19929;-80
2024/02/10 11:23:13;;;;;;;;;;;;;;;5.78;100.00;96700.75;4985775;28;20373;-87
2024/02/10 11:25:40;;;;;;;;;;;;;;;5.75;100.00;96691.28;4984556;28;19965;-85
2024/02/10 11:28:05;;;;;;;;;;;;;;;5.83;100.00;96683.69;4986268;28;19925;-85
2024/02/10 11:30:34;;;;;;;;;;;;;;;5.76;100.00;96677.22;5116230;23;20273;-82
2024/02/10 11:32:59;;;;;;;;;;;;;;;5.79;100.00;96665.63;4996437;28;19975;-81
2024/02/10 11:35:25;;;;;;;;;;;;;;;5.87;100.00;96667.69;4996976;28;19921;-80
2024/02/10 11:37:51;;;;;;;;;;;;;;;5.87;100.00;96652.78;5015251;28;19922;-91
2024/02/10 11:40:19;;;;;;;;;;;;;;;5.89;100.00;96644.75;5014348;28;19987;-80
2024/02/10 11:42:44;;;;;;;;;;;;;;;5.85;100.00;96652.03;4997060;28;20288;-83
2024/02/10 11:45:10;;;;;;;;;;;;;;;5.85;100.00;96648.59;5015062;28;19917;-81
2024/02/10 11:47:36;;;;;;;;;;;;;;;5.81;100.00;96653.22;4997097;28;20004;-82
2024/02/10 11:50:02;;;;;;;;;;;;;;;5.81;100.00;96656.69;5014737;28;20341;-83
2024/02/10 11:52:29;;;;;;;;;;;;;;;5.74;100.00;96657.25;5014981;28;19918;-78
2024/02/10 11:54:54;;;;;;;;;;;;;;;5.80;100.00;96656.78;5013369;28;19925;-81
2024/02/10 11:57:22;;;;;;;;;;;;;;;5.79;100.00;96655.97;5014913;28;20005;-81
2024/02/10 11:59:48;;;;;;;;;;;;;;;5.77;100.00;96659.66;5014658;28;19929;-81
2024/02/10 12:02:15;;;;;;;;;;;;;;;5.77;100.00;96651.75;5014803;28;20000;-80
2024/02/10 12:04:47;;;;;;;;;;;;;;;5.73;100.00;96652.97;5013066;28;19940;-78
2024/02/10 12:07:12;;;;;;;;;;;;;;;5.80;100.00;96651.53;5013992;28;20544;-84
2024/02/10 12:09:38;;;;;;;;;;;;;;;5.73;100.00;96643.28;5013141;28;19976;-86
2024/02/10 12:12:36;;;;;;;;;;;;;;;5.77;100.00;96649.13;5014634;28;19948;-77
2024/02/10 12:15:03;;;;;;;;;;;;;;;5.75;100.00;96632.66;4959256;28;19960;-83
2024/02/10 12:17:34;;;;;;;;;;;;;;;5.81;100.00;96643.56;5014487;28;19921;-83
2024/02/10 12:19:59;;;;;;;;;;;;;;;5.81;100.00;96637.47;4996395;28;19948;-85
2024/02/10 12:22:27;;;;;;;;;;;;;;;5.81;100.00;96638.28;4996434;28;20012;-89
2024/02/10 12:25:32;;;;;;;;;;;;;;;;;;;;;
2024/02/10 12:27:58;;;;;;;;;;;;;;;5.84;100.00;96639.88;5002211;28;19928;-85
2024/02/10 12:30:23;;;;;;;;;;;;;;;5.83;100.00;96646.88;5014602;28;20016;-81
2024/02/10 12:32:51;;;;;;;;;;;;;;;5.88;100.00;96643.09;5014309;28;19949;-83
2024/02/10 12:35:16;;;;;;;;;;;;;;;5.85;100.00;96649.41;5014298;28;19921;-84
2024/02/10 12:37:45;;;;;;;;;;;;;;;5.85;100.00;96643.31;5014195;28;19924;-82
2024/02/10 12:40:11;;;;;;;;;;;;;;;5.84;100.00;96645.13;5012565;28;19923;-84
2024/02/10 12:42:42;;;;;;;;;;;;;;;5.85;100.00;96641.53;5014295;28;19917;-88
2024/02/10 12:47:44;;;;;;;;;;;;;;;5.83;100.00;96636.38;5063520;23;20387;-84
2024/02/10 12:50:10;;;;;;;;;;;;;;;5.83;100.00;96632.94;5013667;28;19917;-85
2024/02/10 12:52:36;;;;;;;;;;;;;;;5.83;100.00;96625.03;4995741;28;19921;-85
2024/02/10 12:55:03;;;;;;;;;;;;;;;5.89;100.00;96624.59;5012244;28;20023;-82
2024/02/10 12:57:30;;;;;;;;;;;;;;;5.85;100.00;96615.25;5013564;28;20005;-83
2024/02/10 12:59:57;;;;;;;;;;;;;;;5.79;100.00;96613.94;4994993;28;19922;-79
2024/02/10 13:02:25;;;;;;;;;;;;;;;5.80;100.00;96614.75;5013553;28;20384;-81
2024/02/10 13:04:50;;;;;;;;;;;;;;;5.81;100.00;96611.19;5013387;28;19921;-80
2024/02/10 13:07:16;;;;;;;;;;;;;;;5.84;100.00;96600.47;5013443;28;19924;-79
2024/02/10 13:09:42;;;;;;;;;;;;;;;5.78;100.00;96599.09;5012557;28;19980;-85
2024/02/10 13:12:07;;;;;;;;;;;;;;;5.81;100.00;96603.31;5013350;28;20021;-78
2024/02/10 13:14:33;;;;;;;;;;;;;;;5.85;100.00;96607.38;5012987;28;20012;-80
2024/02/10 13:16:58;;;;;;;;;;;;;;;5.86;100.00;96605.59;4995752;28;20292;-88
2024/02/10 13:19:23;;;;;;;;;;;;;;;5.87;100.00;96605.47;5013277;28;20287;-84
2024/02/10 13:21:49;;;;;;;;;;;;;;;5.84;100.00;96600.47;4978758;28;19921;-81
2024/02/10 13:24:14;;;;;;;;;;;;;;;5.85;100.00;96596.84;5011855;28;19925;-79
2024/02/10 13:26:40;;;;;;;;;;;;;;;5.86;100.00;96597.72;5013141;28;19926;-84
2024/02/10 13:29:05;;;;;;;;;;;;;;;5.79;100.00;96592.91;5012994;28;19927;-80
2024/02/10 13:31:31;;;;;;;;;;;;;;;5.85;100.00;96594.22;4995201;28;19918;-84
2024/02/10 13:33:56;;;;;;;;;;;;;;;5.86;100.00;96592.47;5012887;28;20063;-79
2024/02/10 13:36:29;;;;;;;;;;;;;;;5.82;100.00;96586.56;4990324;28;19918;-85
2024/02/10 14:00:45;;;;;;;;;;;;;;;5.95;100.00;96561.06;5013031;28;20257;-87
2024/02/10 14:03:13;;;;;;;;;;;;;;;5.94;100.00;96556.75;5011950;28;20442;-87
2024/02/10 14:05:48;;;;;;;;;;;;;;;5.91;100.00;96556.16;5012455;28;19917;-89
2024/02/10 14:11:00;;;;;;;;;;;;;;;5.88;100.00;96559.00;5010938;28;19918;-93
2024/02/10 14:13:25;;;;;;;;;;;;;;;5.92;100.00;96563.06;5012860;28;19922;-86
2024/02/10 14:15:54;;;;;;;;;;;;;;;5.89;100.00;96558.91;4994578;28;20292;-84
2024/02/10 14:18:25;;;;;;;;;;;;;;;5.87;100.00;96560.81;5012309;28;19918;-80
2024/02/10 14:20:51;;;;;;;;;;;;;;;5.90;100.00;96557.94;5011710;28;20403;-80
2024/02/10 14:23:17;;;;;;;;;;;;;;;5.90;100.00;96563.19;5012460;28;19922;-81
2024/02/10 14:25:42;;;;;;;;;;;;;;;5.93;100.00;96560.31;4993043;28;19922;-82
2024/02/10 14:28:11;;;;;;;;;;;;;;;5.93;100.00;96559.50;5011942;28;19928;-82
2024/02/10 14:30:41;;;;;;;;;;;;;;;5.97;100.00;96556.56;5012109;28;19929;-79
2024/02/10 14:33:09;;;;;;;;;;;;;;;5.91;100.00;96553.53;5012006;28;19921;-85
2024/02/10 14:35:46;;;;;;;;;;;;;;;5.93;100.00;96555.06;4994319;28;19932;-84
2024/02/10 14:38:24;;;;;;;;;;;;;;;5.93;100.00;96549.00;4994457;28;19918;-81
2024/02/10 14:40:56;;;;;;;;;;;;;;;5.95;100.00;96545.31;5011047;28;19937;-87
2024/02/10 14:43:23;;;;;;;;;;;;;;;5.91;100.00;96532.50;5011180;28;19921;-80
2024/02/10 14:45:49;;;;;;;;;;;;;;;5.95;100.00;96531.31;4993974;28;19922;-82
2024/02/10 14:48:17;;;;;;;;;;;;;;;5.96;100.00;96525.97;4994111;28;19933;-85
2024/02/10 14:50:43;;;;;;;;;;;;;;;5.96;100.00;96525.97;5012362;28;19914;-90
2024/02/10 14:53:10;;;;;;;;;;;;;;;5.97;100.00;96519.75;4993985;28;19917;-87
2024/02/10 14:55:35;;;;;;;;;;;;;;;5.95;100.00;96519.03;5010723;28;19925;-84
2024/02/10 14:58:03;;;;;;;;;;;;;;;5.96;100.00;96525.09;4994462;28;20020;-81
2024/02/10 15:00:31;;;;;;;;;;;;;;;5.96;100.00;96520.72;5012534;28;19921;-85
2024/02/10 15:03:08;;;;;;;;;;;;;;;8.27;100.00;96525.03;4978288;28;19921;-86
2024/02/10 15:05:34;;;;;;;;;;;;;;;6.72;100.00;96518.34;5012080;28;19918;-80
2024/02/10 15:08:02;;;;;;;;;;;;;;;6.38;100.00;96521.94;4994006;28;20340;-85
2024/02/10 15:10:27;;;;;;;;;;;;;;;6.25;100.00;96515.00;5011852;28;19925;-84
2024/02/10 15:12:53;;;;;;;;;;;;;;;6.22;100.00;96499.47;5013443;28;19918;-90
2024/02/10 15:15:19;;;;;;;;;;;;;;;6.21;100.00;96499.59;4996156;28;19924;-79
2024/02/10 15:17:45;;;;;;;;;;;;;;;6.07;100.00;96490.16;4996269;28;20442;-78
2024/02/10 15:20:11;;;;;;;;;;;;;;;6.05;100.00;96482.38;4994943;28;19913;-87
2024/02/10 15:22:39;;;;;;;;;;;;;;;6.06;100.00;96472.69;5011994;28;20346;-87
2024/02/10 15:25:06;;;;;;;;;;;;;;;6.09;100.00;96478.53;5009368;28;19922;-80
2024/02/10 15:27:34;;;;;;;;;;;;;;;6.03;100.00;96478.19;5011850;28;19913;-91
2024/02/10 15:30:00;;;;;;;;;;;;;;;5.98;100.00;96471.50;5011700;28;19917;-85
2024/02/10 15:32:28;;;;;;;;;;;;;;;6.04;100.00;96472.00;4993730;28;19913;-86
2024/02/10 15:34:55;;;;;;;;;;;;;;;6.01;100.00;96459.91;5011951;28;19980;-86
2024/02/10 15:37:23;;;;;;;;;;;;;;;5.98;100.00;96468.88;5011524;28;20369;-85
2024/02/10 15:39:49;;;;;;;;;;;;;;;5.95;100.00;96466.47;4994228;28;19921;-85
2024/02/10 15:42:14;;;;;;;;;;;;;;;5.93;100.00;96478.84;4997443;28;19921;-94
2024/02/10 15:44:45;;;;;;;;;;;;;;;5.94;100.00;96474.47;5015140;28;19922;-86
2024/02/10 15:47:10;;;;;;;;;;;;;;;6.44;100.00;96476.78;4996475;28;19925;-84
2024/02/10 15:49:36;;;;;;;;;;;;;;;6.05;100.00;96484.16;4997045;28;19917;-85
2024/02/10 15:52:01;;;;;;;;;;;;;;;5.99;100.00;96486.31;5014860;28;19975;-83
2024/02/10 15:54:26;;;;;;;;;;;;;;;5.91;100.00;96495.72;5013406;28;19921;-84
2024/02/10 15:56:52;;;;;;;;;;;;;;;5.97;100.00;96495.28;4996738;28;19965;-82
2024/02/10 15:59:20;;;;;;;;;;;;;;;5.92;100.00;96502.63;5013828;28;19918;-81
2024/02/10 16:01:50;;;;;;;;;;;;;;;5.96;100.00;96504.06;5014732;28;19928;-84
2024/02/10 16:04:15;;;;;;;;;;;;;;;5.92;100.00;96498.22;5014641;28;19918;-88
2024/02/10 16:06:43;;;;;;;;;;;;;;;5.96;100.00;96494.44;5014981;28;19928;-83
2024/02/10 16:09:10;;;;;;;;;;;;;;;5.94;100.00;96500.75;5015381;28;20484;-86
2024/02/10 16:11:36;;;;;;;;;;;;;;;5.94;100.00;96512.06;5013763;28;19959;-84
2024/02/10 16:14:01;;;;;;;;;;;;;;;5.98;100.00;96518.81;4996907;28;19921;-87
2024/02/10 16:16:27;;;;;;;;;;;;;;;5.97;100.00;96530.28;5014309;28;20375;-85
2024/02/10 16:18:57;;;;;;;;;;;;;;;5.96;100.00;96530.34;5015127;28;19924;-82
2024/02/10 16:21:26;;;;;;;;;;;;;;;5.94;100.00;96527.84;5014392;28;19917;-83
2024/02/10 16:23:51;;;;;;;;;;;;;;;5.89;100.00;96523.88;5013922;28;19975;-86
2024/02/10 16:26:17;;;;;;;;;;;;;;;5.91;100.00;96519.38;5012948;28;20324;-82
2024/02/10 16:28:42;;;;;;;;;;;;;;;5.94;100.00;96525.22;4997263;28;19922;-85
2024/02/10 16:31:10;;;;;;;;;;;;;;;5.91;100.00;96512.31;5014434;28;19971;-81
2024/02/10 16:33:35;;;;;;;;;;;;;;;5.88;100.00;96502.03;5014227;28;19924;-86
2024/02/10 16:36:02;;;;;;;;;;;;;;;5.90;100.00;96497.50;4995951;28;19917;-84
2024/02/10 16:38:28;;;;;;;;;;;;;;;5.91;100.00;96506.22;4995755;28;20291;-83
2024/02/10 16:40:53;;;;;;;;;;;;;;;5.91;100.00;96514.94;5013642;28;20012;-85
2024/02/10 16:43:19;;;;;;;;;;;;;;;5.89;100.00;96524.75;4995967;28;19962;-82
2024/02/10 16:45:45;;;;;;;;;;;;;;;5.87;100.00;96537.16;5013663;28;20032;-79
2024/02/10 16:48:10;;;;;;;;;;;;;;;5.91;100.00;96548.28;5013877;28;20004;-80
2024/02/10 16:50:38;;;;;;;;;;;;;;;5.90;100.00;96563.19;4996307;28;19928;-83
2024/02/10 16:53:08;;;;;;;;;;;;;;;5.93;100.00;96575.25;5013799;28;19921;-84
2024/02/10 16:55:36;;;;;;;;;;;;;;;5.92;100.00;96581.47;5012198;28;19917;-85
2024/02/10 16:58:07;;;;;;;;;;;;;;;5.91;100.00;96574.56;5012975;28;19918;-88
2024/02/10 17:00:33;;;;;;;;;;;;;;;5.87;100.00;96579.22;5014155;28;19954;-88
2024/02/10 17:02:58;;;;;;;;;;;;;;;5.88;100.00;96586.13;5013820;28;20475;-82
2024/02/10 17:05:30;;;;;;;;;;;;;;;5.90;100.00;96596.50;5013380;28;19917;-87
2024/02/10 17:08:01;;;;;;;;;;;;;;;5.93;100.00;96588.41;4995828;28;19926;-83
2024/02/10 17:10:31;;;;;;;;;;;;;;;5.88;100.00;96591.38;5012058;28;20384;-88
2024/02/10 17:12:59;;;;;;;;;;;;;;;5.86;100.00;96581.94;5609954;23;19926;-83
2024/02/10 17:15:24;;;;;;;;;;;;;;;5.86;100.00;96590.66;4973971;28;19965;-83
2024/02/10 17:17:49;;;;;;;;;;;;;;;5.83;100.00;96599.59;4956990;28;20447;-81
2024/02/10 17:20:14;;;;;;;;;;;;;;;5.85;100.00;96602.13;4956775;28;20458;-84
2024/02/10 17:22:40;;;;;;;;;;;;;;;5.87;100.00;96605.47;4974068;28;20073;-80
2024/02/10 17:25:05;;;;;;;;;;;;;;;5.86;100.00;96603.78;4955821;28;19922;-85
2024/02/10 17:27:32;;;;;;;;;;;;;;;5.81;100.00;96600.69;4956465;28;19973;-86
2024/02/10 17:29:58;;;;;;;;;;;;;;;5.82;100.00;96608.44;4976681;28;19922;-86
2024/02/10 17:35:31;;;;;;;;;;;;;;;5.87;100.00;96621.25;4952790;28;19918;-80
2024/02/10 17:38:02;;;;;;;;;;;;;;;5.79;100.00;96611.31;4973179;28;19918;-87
2024/02/10 17:40:30;;;;;;;;;;;;;;;5.86;100.00;96609.06;4971933;28;19964;-87
2024/02/10 17:43:05;;;;;;;;;;;;;;;5.87;100.00;96604.63;4973762;28;19919;-83
2024/02/10 17:45:30;;;;;;;;;;;;;;;5.83;100.00;96620.63;4973314;28;19922;-81
2024/02/10 17:47:56;;;;;;;;;;;;;;;5.83;100.00;96615.34;4974534;28;20016;-88
2024/02/10 17:50:28;;;;;;;;;;;;;;;5.81;100.00;96616.44;4974679;28;20021;-90
2024/02/10 17:53:04;;;;;;;;;;;;;;;5.82;100.00;96616.34;4973953;28;19918;-86
2024/02/10 17:55:30;;;;;;;;;;;;;;;5.83;100.00;96625.03;4954409;28;19929;-84
2024/02/10 17:57:55;;;;;;;;;;;;;;;5.83;100.00;96627.66;4973672;28;19918;-85
2024/02/10 18:00:22;;;;;;;;;;;;;;;5.86;100.00;96630.06;4973421;28;19918;-82
2024/02/10 18:02:48;;;;;;;;;;;;;;;5.82;100.00;96636.50;4972513;28;20006;-86
2024/02/10 18:05:16;;;;;;;;;;;;;;;5.81;100.00;96634.84;4956416;28;19918;-85
2024/02/10 18:07:42;;;;;;;;;;;;;;;5.83;100.00;96639.00;4957015;28;19922;-86
2024/02/10 18:10:08;;;;;;;;;;;;;;;5.83;100.00;96635.56;4972410;28;19919;-81
2024/02/10 18:12:33;;;;;;;;;;;;;;;5.87;100.00;96642.28;4973295;28;19940;-90
2024/02/10 18:14:58;;;;;;;;;;;;;;;5.86;100.00;96634.50;4973753;28;19980;-83
2024/02/10 18:18:09;;;;;;;;;;;;;;;5.84;100.00;96637.25;4973270;28;19918;-81
2024/02/10 18:20:46;;;;;;;;;;;;;;;;;;;;;
2024/02/10 18:23:25;;;;;;;;;;;;;;;5.88;100.00;96638.69;4973101;28;19922;-81
2024/02/10 18:25:55;;;;;;;;;;;;;;;5.87;100.00;96641.41;4971532;28;19922;-85
2024/02/10 18:28:22;;;;;;;;;;;;;;;5.86;100.00;96640.59;4973261;28;19930;-86
2024/02/10 18:30:48;;;;;;;;;;;;;;;5.90;100.00;96635.94;4972885;28;20526;-85
2024/02/10 18:33:14;;;;;;;;;;;;;;;5.87;100.00;96633.53;4973702;28;19988;-89
2024/02/10 18:35:42;;;;;;;;;;;;;;;5.85;100.00;96638.91;4972937;28;20369;-87
2024/02/10 18:40:42;;;;;;;;;;;;;;;5.91;100.00;96624.47;5080783;23;19930;-88
2024/02/10 18:43:08;;;;;;;;;;;;;;;5.89;100.00;96632.47;4992193;28;20365;-83
2024/02/10 18:45:33;;;;;;;;;;;;;;;5.86;100.00;96624.81;4992291;28;19921;-88
2024/02/10 18:48:03;;;;;;;;;;;;;;;5.90;100.00;96633.31;4992548;28;19964;-81
2024/02/10 18:50:29;;;;;;;;;;;;;;;5.83;100.00;96632.94;4990840;28;19917;-87
2024/02/10 18:52:56;;;;;;;;;;;;;;;5.82;100.00;96631.25;4991101;28;19977;-83
2024/02/10 18:55:22;;;;;;;;;;;;;;;5.80;100.00;96625.28;4990539;28;20262;-82
2024/02/10 18:57:47;;;;;;;;;;;;;;;5.80;100.00;96628.72;4990861;28;20073;-87
2024/02/10 19:00:19;;;;;;;;;;;;;;;5.82;100.00;96632.09;4992337;28;19929;-86
2024/02/10 19:02:47;;;;;;;;;;;;;;;5.82;100.00;96626.84;4983757;28;19921;-88
2024/02/10 19:05:13;;;;;;;;;;;;;;;5.88;100.00;96627.34;4991740;28;19969;-88
2024/02/10 19:07:38;;;;;;;;;;;;;;;5.87;100.00;96617.75;4990658;28;19988;-87
2024/02/10 19:10:06;;;;;;;;;;;;;;;5.86;100.00;96616.94;4990945;28;19918;-87
2024/02/10 19:12:32;;;;;;;;;;;;;;;5.77;100.00;96613.19;4990903;28;19965;-89
2024/02/10 19:14:58;;;;;;;;;;;;;;;5.83;100.00;96622.41;4995232;28;19957;-85
2024/02/10 19:17:24;;;;;;;;;;;;;;;5.84;100.00;96629.34;4996674;28;20093;-90
2024/02/10 19:19:49;;;;;;;;;;;;;;;5.79;100.00;96634.94;4995936;28;20372;-89
2024/02/10 19:22:15;;;;;;;;;;;;;;;5.76;100.00;96629.91;4995949;28;19922;-81
2024/02/10 19:24:40;;;;;;;;;;;;;;;5.81;100.00;96633.03;4994324;28;19926;-82
2024/02/10 19:27:06;;;;;;;;;;;;;;;5.83;100.00;96635.56;4995869;28;19922;-80
2024/02/10 19:29:31;;;;;;;;;;;;;;;6.77;100.00;96625.06;4995279;28;20346;-83